Terminal Aerodrome Forecast
Issued by NWS

Home | Current Version | Previous Version | Text Only | Print | Product List | Glossary On
Versions: 1 2 3 4 5 6 7 8 9 10 11 12 13 14 15 16 17 18 19 20 21 22 23 24 25 26
974
FTUS41 KBGM 031444 AAA
TAFITH
TAF AMD
KITH 031444Z 0315/0412 31011G20KT P6SM OVC025
      TEMPO 0315/0317 1 1/2SM -SN BR OVC015
     FM032000 31012G24KT P6SM OVC020
     FM040000 31009KT P6SM BKN025=

USA.gov is the U.S. government's official web portal to all federal, state and local government web resources and services.